sensor_id;sensor_type;location;lat;lon;timestamp;P1;durP1;ratioP1;P2;durP2;ratioP2
46365;SDS011;32073;49.166;8.076;2023-01-01T00:03:24;5.50;;;3.85;;
46365;SDS011;32073;49.166;8.076;2023-01-01T00:07:24;6.00;;;3.17;;
46365;SDS011;32073;49.166;8.076;2023-01-01T00:11:25;4.68;;;3.50;;
46365;SDS011;32073;49.166;8.076;2023-01-01T00:15:26;7.90;;;5.07;;
46365;SDS011;32073;49.166;8.076;2023-01-01T00:19:27;8.15;;;4.47;;
46365;SDS011;32073;49.166;8.076;2023-01-01T00:23:28;8.65;;;5.13;;
46365;SDS011;32073;49.166;8.076;2023-01-01T00:27:29;5.75;;;3.42;;
46365;SDS011;32073;49.166;8.076;2023-01-01T00:31:30;4.93;;;3.60;;
46365;SDS011;32073;49.166;8.076;2023-01-01T00:35:31;6.15;;;3.65;;
46365;SDS011;32073;49.166;8.076;2023-01-01T00:39:32;5.07;;;3.35;;
46365;SDS011;32073;49.166;8.076;2023-01-01T00:43:33;5.95;;;3.70;;
46365;SDS011;32073;49.166;8.076;2023-01-01T00:47:34;7.00;;;4.30;;
46365;SDS011;32073;49.166;8.076;2023-01-01T00:51:35;5.60;;;3.75;;
46365;SDS011;32073;49.166;8.076;2023-01-01T00:55:37;6.28;;;3.50;;
46365;SDS011;32073;49.166;8.076;2023-01-01T00:59:39;6.18;;;3.60;;
46365;SDS011;32073;49.166;8.076;2023-01-01T01:03:40;5.07;;;3.30;;
46365;SDS011;32073;49.166;8.076;2023-01-01T01:07:41;6.55;;;3.28;;
46365;SDS011;32073;49.166;8.076;2023-01-01T01:11:42;5.30;;;3.45;;
46365;SDS011;32073;49.166;8.076;2023-01-01T01:15:42;5.43;;;3.47;;
46365;SDS011;32073;49.166;8.076;2023-01-01T01:19:43;5.32;;;3.53;;
46365;SDS011;32073;49.166;8.076;2023-01-01T01:23:44;5.32;;;3.97;;
46365;SDS011;32073;49.166;8.076;2023-01-01T01:27:45;5.30;;;3.25;;
46365;SDS011;32073;49.166;8.076;2023-01-01T01:31:45;7.50;;;3.78;;
46365;SDS011;32073;49.166;8.076;2023-01-01T01:35:49;3.88;;;3.10;;
46365;SDS011;32073;49.166;8.076;2023-01-01T01:39:51;5.95;;;3.63;;
46365;SDS011;32073;49.166;8.076;2023-01-01T01:47:56;5.68;;;3.45;;
46365;SDS011;32073;49.166;8.076;2023-01-01T01:51:59;5.70;;;3.78;;
46365;SDS011;32073;49.166;8.076;2023-01-01T01:56:05;6.28;;;4.40;;
46365;SDS011;32073;49.166;8.076;2023-01-01T02:04:11;6.45;;;4.63;;
46365;SDS011;32073;49.166;8.076;2023-01-01T02:08:12;11.82;;;6.10;;
46365;SDS011;32073;49.166;8.076;2023-01-01T02:12:14;7.25;;;4.68;;
46365;SDS011;32073;49.166;8.076;2023-01-01T02:33:41;8.68;;;4.40;;
46365;SDS011;32073;49.166;8.076;2023-01-01T02:37:44;7.28;;;4.15;;
46365;SDS011;32073;49.166;8.076;2023-01-01T02:41:49;6.95;;;3.97;;
46365;SDS011;32073;49.166;8.076;2023-01-01T02:45:53;8.88;;;3.85;;
46365;SDS011;32073;49.166;8.076;2023-01-01T02:49:57;5.25;;;3.25;;
46365;SDS011;32073;49.166;8.076;2023-01-01T02:58:34;7.03;;;3.25;;
46365;SDS011;32073;49.166;8.076;2023-01-01T03:03:15;5.28;;;2.95;;
46365;SDS011;32073;49.166;8.076;2023-01-01T03:07:46;4.53;;;3.15;;
46365;SDS011;32073;49.166;8.076;2023-01-01T03:12:12;5.82;;;3.35;;
46365;SDS011;32073;49.166;8.076;2023-01-01T03:16:27;4.87;;;3.10;;
46365;SDS011;32073;49.166;8.076;2023-01-01T03:20:39;6.50;;;4.18;;
46365;SDS011;32073;49.166;8.076;2023-01-01T03:24:49;6.43;;;4.38;;
46365;SDS011;32073;49.166;8.076;2023-01-01T03:28:55;7.47;;;4.50;;
46365;SDS011;32073;49.166;8.076;2023-01-01T03:33:00;5.00;;;3.42;;
46365;SDS011;32073;49.166;8.076;2023-01-01T03:37:11;7.13;;;3.88;;
46365;SDS011;32073;49.166;8.076;2023-01-01T03:45:56;6.55;;;4.30;;
46365;SDS011;32073;49.166;8.076;2023-01-01T03:49:59;8.82;;;4.80;;
46365;SDS011;32073;49.166;8.076;2023-01-01T03:54:06;7.47;;;4.63;;
46365;SDS011;32073;49.166;8.076;2023-01-01T03:58:37;6.70;;;4.28;;
46365;SDS011;32073;49.166;8.076;2023-01-01T04:06:51;8.60;;;4.43;;
46365;SDS011;32073;49.166;8.076;2023-01-01T04:10:56;6.63;;;4.22;;
46365;SDS011;32073;49.166;8.076;2023-01-01T04:14:59;7.15;;;4.25;;
46365;SDS011;32073;49.166;8.076;2023-01-01T04:19:00;9.15;;;4.18;;
46365;SDS011;32073;49.166;8.076;2023-01-01T04:23:01;6.40;;;4.25;;
46365;SDS011;32073;49.166;8.076;2023-01-01T04:27:02;7.72;;;3.95;;
46365;SDS011;32073;49.166;8.076;2023-01-01T04:31:03;5.57;;;3.80;;
46365;SDS011;32073;49.166;8.076;2023-01-01T04:35:04;9.75;;;4.25;;
46365;SDS011;32073;49.166;8.076;2023-01-01T04:39:07;5.15;;;3.45;;
46365;SDS011;32073;49.166;8.076;2023-01-01T04:43:08;7.40;;;3.58;;
46365;SDS011;32073;49.166;8.076;2023-01-01T04:47:08;7.40;;;3.65;;
46365;SDS011;32073;49.166;8.076;2023-01-01T04:51:10;5.90;;;3.33;;
46365;SDS011;32073;49.166;8.076;2023-01-01T04:55:13;5.45;;;3.13;;
46365;SDS011;32073;49.166;8.076;2023-01-01T04:59:13;5.70;;;3.42;;
46365;SDS011;32073;49.166;8.076;2023-01-01T05:03:14;6.18;;;3.00;;
46365;SDS011;32073;49.166;8.076;2023-01-01T05:07:16;5.93;;;3.35;;
46365;SDS011;32073;49.166;8.076;2023-01-01T05:11:18;7.38;;;3.20;;
46365;SDS011;32073;49.166;8.076;2023-01-01T05:15:22;5.72;;;2.80;;
46365;SDS011;32073;49.166;8.076;2023-01-01T05:19:23;5.30;;;3.38;;
46365;SDS011;32073;49.166;8.076;2023-01-01T05:23:24;6.30;;;3.20;;
46365;SDS011;32073;49.166;8.076;2023-01-01T05:27:24;6.78;;;2.97;;
46365;SDS011;32073;49.166;8.076;2023-01-01T05:31:26;5.60;;;2.58;;
46365;SDS011;32073;49.166;8.076;2023-01-01T05:35:30;4.85;;;2.45;;
46365;SDS011;32073;49.166;8.076;2023-01-01T05:39:31;3.97;;;2.58;;
46365;SDS011;32073;49.166;8.076;2023-01-01T05:43:32;5.53;;;2.55;;
46365;SDS011;32073;49.166;8.076;2023-01-01T05:47:33;5.20;;;2.35;;
46365;SDS011;32073;49.166;8.076;2023-01-01T05:51:34;4.63;;;2.50;;
46365;SDS011;32073;49.166;8.076;2023-01-01T05:55:36;3.90;;;1.92;;
46365;SDS011;32073;49.166;8.076;2023-01-01T05:59:36;3.83;;;1.80;;
46365;SDS011;32073;49.166;8.076;2023-01-01T06:03:37;3.60;;;2.00;;
46365;SDS011;32073;49.166;8.076;2023-01-01T06:07:39;6.40;;;2.40;;
46365;SDS011;32073;49.166;8.076;2023-01-01T06:11:40;4.15;;;1.98;;
46365;SDS011;32073;49.166;8.076;2023-01-01T06:15:40;4.35;;;1.60;;
46365;SDS011;32073;49.166;8.076;2023-01-01T06:19:41;3.97;;;1.60;;
46365;SDS011;32073;49.166;8.076;2023-01-01T06:23:42;3.00;;;2.10;;
46365;SDS011;32073;49.166;8.076;2023-01-01T06:27:43;2.65;;;1.60;;
46365;SDS011;32073;49.166;8.076;2023-01-01T06:31:44;4.10;;;1.58;;
46365;SDS011;32073;49.166;8.076;2023-01-01T06:35:44;4.07;;;1.50;;
46365;SDS011;32073;49.166;8.076;2023-01-01T06:39:45;2.58;;;1.55;;
46365;SDS011;32073;49.166;8.076;2023-01-01T06:43:46;2.95;;;1.35;;
46365;SDS011;32073;49.166;8.076;2023-01-01T06:47:47;2.03;;;1.23;;
46365;SDS011;32073;49.166;8.076;2023-01-01T06:51:48;4.13;;;1.17;;
46365;SDS011;32073;49.166;8.076;2023-01-01T06:55:49;3.03;;;1.38;;
46365;SDS011;32073;49.166;8.076;2023-01-01T06:59:49;3.85;;;0.98;;
46365;SDS011;32073;49.166;8.076;2023-01-01T07:04:07;2.38;;;0.90;;
46365;SDS011;32073;49.166;8.076;2023-01-01T07:08:11;2.70;;;0.98;;
46365;SDS011;32073;49.166;8.076;2023-01-01T07:12:12;4.28;;;1.73;;
46365;SDS011;32073;49.166;8.076;2023-01-01T07:16:13;4.80;;;1.48;;
46365;SDS011;32073;49.166;8.076;2023-01-01T07:20:14;3.25;;;1.58;;
46365;SDS011;32073;49.166;8.076;2023-01-01T07:24:15;5.60;;;1.88;;
46365;SDS011;32073;49.166;8.076;2023-01-01T07:28:16;2.83;;;1.20;;
46365;SDS011;32073;49.166;8.076;2023-01-01T07:32:17;4.50;;;1.38;;
46365;SDS011;32073;49.166;8.076;2023-01-01T07:36:17;2.80;;;1.70;;
46365;SDS011;32073;49.166;8.076;2023-01-01T07:40:18;3.92;;;0.98;;
46365;SDS011;32073;49.166;8.076;2023-01-01T07:44:19;3.75;;;1.30;;
46365;SDS011;32073;49.166;8.076;2023-01-01T07:48:19;3.13;;;1.05;;
46365;SDS011;32073;49.166;8.076;2023-01-01T07:52:20;2.90;;;1.10;;
46365;SDS011;32073;49.166;8.076;2023-01-01T07:56:20;3.40;;;0.80;;
46365;SDS011;32073;49.166;8.076;2023-01-01T08:00:21;3.00;;;1.02;;
46365;SDS011;32073;49.166;8.076;2023-01-01T08:04:23;3.38;;;0.88;;
46365;SDS011;32073;49.166;8.076;2023-01-01T08:08:25;2.20;;;0.90;;
46365;SDS011;32073;49.166;8.076;2023-01-01T08:12:26;3.90;;;1.23;;
46365;SDS011;32073;49.166;8.076;2023-01-01T08:16:26;2.47;;;1.40;;
46365;SDS011;32073;49.166;8.076;2023-01-01T08:20:28;4.20;;;1.42;;
46365;SDS011;32073;49.166;8.076;2023-01-01T08:24:30;3.28;;;1.63;;
46365;SDS011;32073;49.166;8.076;2023-01-01T08:28:31;2.97;;;0.90;;
46365;SDS011;32073;49.166;8.076;2023-01-01T08:32:31;3.55;;;1.10;;
46365;SDS011;32073;49.166;8.076;2023-01-01T08:36:32;3.40;;;1.27;;
46365;SDS011;32073;49.166;8.076;2023-01-01T08:40:33;4.55;;;1.70;;
46365;SDS011;32073;49.166;8.076;2023-01-01T08:44:35;2.80;;;1.20;;
46365;SDS011;32073;49.166;8.076;2023-01-01T08:48:36;3.92;;;1.17;;
46365;SDS011;32073;49.166;8.076;2023-01-01T08:52:36;3.65;;;1.15;;
46365;SDS011;32073;49.166;8.076;2023-01-01T08:56:37;5.88;;;1.23;;
46365;SDS011;32073;49.166;8.076;2023-01-01T09:00:38;3.30;;;0.90;;
46365;SDS011;32073;49.166;8.076;2023-01-01T09:04:38;3.00;;;1.00;;
46365;SDS011;32073;49.166;8.076;2023-01-01T09:08:39;2.33;;;1.20;;
46365;SDS011;32073;49.166;8.076;2023-01-01T09:12:40;3.45;;;1.40;;
46365;SDS011;32073;49.166;8.076;2023-01-01T09:16:40;8.15;;;2.47;;
46365;SDS011;32073;49.166;8.076;2023-01-01T09:20:41;3.42;;;1.70;;
46365;SDS011;32073;49.166;8.076;2023-01-01T09:24:42;5.45;;;1.83;;
46365;SDS011;32073;49.166;8.076;2023-01-01T09:28:42;5.65;;;1.65;;
46365;SDS011;32073;49.166;8.076;2023-01-01T09:32:43;3.42;;;1.10;;
46365;SDS011;32073;49.166;8.076;2023-01-01T09:36:44;4.18;;;1.00;;
46365;SDS011;32073;49.166;8.076;2023-01-01T09:49:31;4.15;;;1.10;;
46365;SDS011;32073;49.166;8.076;2023-01-01T09:54:01;5.60;;;1.35;;
46365;SDS011;32073;49.166;8.076;2023-01-01T09:58:11;2.97;;;1.10;;
46365;SDS011;32073;49.166;8.076;2023-01-01T10:20:06;2.78;;;1.00;;
46365;SDS011;32073;49.166;8.076;2023-01-01T10:24:32;2.05;;;1.00;;
46365;SDS011;32073;49.166;8.076;2023-01-01T10:33:04;3.33;;;1.35;;
46365;SDS011;32073;49.166;8.076;2023-01-01T10:37:12;3.20;;;1.40;;
46365;SDS011;32073;49.166;8.076;2023-01-01T10:41:14;4.53;;;1.65;;
46365;SDS011;32073;49.166;8.076;2023-01-01T10:45:17;2.25;;;1.30;;
46365;SDS011;32073;49.166;8.076;2023-01-01T10:49:33;2.90;;;0.98;;
46365;SDS011;32073;49.166;8.076;2023-01-01T10:53:37;4.53;;;1.23;;
46365;SDS011;32073;49.166;8.076;2023-01-01T10:57:41;4.18;;;1.25;;
46365;SDS011;32073;49.166;8.076;2023-01-01T11:01:42;6.57;;;1.35;;
46365;SDS011;32073;49.166;8.076;2023-01-01T11:10:23;5.45;;;1.55;;
46365;SDS011;32073;49.166;8.076;2023-01-01T11:14:40;3.50;;;1.15;;
46365;SDS011;32073;49.166;8.076;2023-01-01T11:18:48;5.03;;;1.20;;
46365;SDS011;32073;49.166;8.076;2023-01-01T11:22:49;7.07;;;1.63;;
46365;SDS011;32073;49.166;8.076;2023-01-01T11:26:52;3.30;;;1.65;;
46365;SDS011;32073;49.166;8.076;2023-01-01T11:31:16;6.03;;;1.48;;
46365;SDS011;32073;49.166;8.076;2023-01-01T11:35:22;3.83;;;1.20;;
46365;SDS011;32073;49.166;8.076;2023-01-01T11:39:26;4.25;;;1.48;;
46365;SDS011;32073;49.166;8.076;2023-01-01T11:43:28;2.58;;;1.33;;
46365;SDS011;32073;49.166;8.076;2023-01-01T11:47:38;3.50;;;1.45;;
46365;SDS011;32073;49.166;8.076;2023-01-01T11:51:40;3.08;;;1.35;;
46365;SDS011;32073;49.166;8.076;2023-01-01T11:55:42;4.70;;;1.60;;
46365;SDS011;32073;49.166;8.076;2023-01-01T12:00:12;3.03;;;1.52;;
46365;SDS011;32073;49.166;8.076;2023-01-01T12:08:31;3.63;;;2.00;;
46365;SDS011;32073;49.166;8.076;2023-01-01T12:17:37;6.07;;;1.80;;
46365;SDS011;32073;49.166;8.076;2023-01-01T12:21:42;5.05;;;1.60;;
46365;SDS011;32073;49.166;8.076;2023-01-01T12:25:49;5.00;;;1.80;;
46365;SDS011;32073;49.166;8.076;2023-01-01T12:34:57;4.20;;;1.20;;
46365;SDS011;32073;49.166;8.076;2023-01-01T12:39:49;3.72;;;1.38;;
46365;SDS011;32073;49.166;8.076;2023-01-01T12:48:35;4.78;;;1.10;;
46365;SDS011;32073;49.166;8.076;2023-01-01T12:57:08;3.58;;;1.77;;
46365;SDS011;32073;49.166;8.076;2023-01-01T13:01:17;3.30;;;1.50;;
46365;SDS011;32073;49.166;8.076;2023-01-01T13:05:38;5.88;;;1.70;;
46365;SDS011;32073;49.166;8.076;2023-01-01T13:09:43;2.90;;;1.52;;
46365;SDS011;32073;49.166;8.076;2023-01-01T13:13:47;3.70;;;1.60;;
46365;SDS011;32073;49.166;8.076;2023-01-01T13:17:51;3.80;;;1.63;;
46365;SDS011;32073;49.166;8.076;2023-01-01T13:21:52;5.53;;;1.60;;
46365;SDS011;32073;49.166;8.076;2023-01-01T13:34:43;3.33;;;1.55;;
46365;SDS011;32073;49.166;8.076;2023-01-01T13:39:00;5.55;;;1.45;;
46365;SDS011;32073;49.166;8.076;2023-01-01T13:51:41;3.30;;;1.42;;
46365;SDS011;32073;49.166;8.076;2023-01-01T14:00:34;2.90;;;1.42;;
46365;SDS011;32073;49.166;8.076;2023-01-01T14:04:46;4.68;;;1.52;;
46365;SDS011;32073;49.166;8.076;2023-01-01T14:09:12;3.45;;;1.50;;
46365;SDS011;32073;49.166;8.076;2023-01-01T14:13:16;4.10;;;1.38;;
46365;SDS011;32073;49.166;8.076;2023-01-01T14:17:17;4.65;;;1.77;;
46365;SDS011;32073;49.166;8.076;2023-01-01T14:21:20;4.72;;;1.83;;
46365;SDS011;32073;49.166;8.076;2023-01-01T14:25:25;13.85;;;7.20;;
46365;SDS011;32073;49.166;8.076;2023-01-01T14:29:28;4.22;;;2.65;;
46365;SDS011;32073;49.166;8.076;2023-01-01T14:33:31;4.05;;;1.75;;
46365;SDS011;32073;49.166;8.076;2023-01-01T14:37:33;2.47;;;1.30;;
46365;SDS011;32073;49.166;8.076;2023-01-01T14:41:40;3.78;;;1.73;;
46365;SDS011;32073;49.166;8.076;2023-01-01T14:45:42;3.95;;;1.60;;
46365;SDS011;32073;49.166;8.076;2023-01-01T14:49:43;3.10;;;1.30;;
46365;SDS011;32073;49.166;8.076;2023-01-01T14:53:44;5.72;;;1.80;;
46365;SDS011;32073;49.166;8.076;2023-01-01T14:57:48;4.25;;;1.88;;
46365;SDS011;32073;49.166;8.076;2023-01-01T15:02:08;2.67;;;1.55;;
46365;SDS011;32073;49.166;8.076;2023-01-01T15:06:21;3.42;;;1.67;;
46365;SDS011;32073;49.166;8.076;2023-01-01T15:10:27;3.40;;;1.50;;
46365;SDS011;32073;49.166;8.076;2023-01-01T15:14:40;5.68;;;1.58;;
46365;SDS011;32073;49.166;8.076;2023-01-01T15:18:45;8.80;;;2.67;;
46365;SDS011;32073;49.166;8.076;2023-01-01T15:22:49;7.07;;;1.80;;
46365;SDS011;32073;49.166;8.076;2023-01-01T15:26:52;3.70;;;1.40;;
46365;SDS011;32073;49.166;8.076;2023-01-01T15:30:55;3.40;;;1.80;;
46365;SDS011;32073;49.166;8.076;2023-01-01T15:35:01;4.43;;;1.63;;
46365;SDS011;32073;49.166;8.076;2023-01-01T15:39:08;5.05;;;1.58;;
46365;SDS011;32073;49.166;8.076;2023-01-01T15:43:32;5.38;;;1.73;;
46365;SDS011;32073;49.166;8.076;2023-01-01T15:47:36;3.58;;;1.40;;
46365;SDS011;32073;49.166;8.076;2023-01-01T15:51:39;3.22;;;1.35;;
46365;SDS011;32073;49.166;8.076;2023-01-01T15:55:42;11.90;;;5.35;;
46365;SDS011;32073;49.166;8.076;2023-01-01T15:59:45;10.18;;;4.18;;
46365;SDS011;32073;49.166;8.076;2023-01-01T16:03:48;7.00;;;3.22;;
46365;SDS011;32073;49.166;8.076;2023-01-01T16:08:04;9.80;;;3.67;;
46365;SDS011;32073;49.166;8.076;2023-01-01T16:12:07;5.13;;;2.53;;
46365;SDS011;32073;49.166;8.076;2023-01-01T16:16:26;5.90;;;1.98;;
46365;SDS011;32073;49.166;8.076;2023-01-01T16:20:29;6.80;;;3.00;;
46365;SDS011;32073;49.166;8.076;2023-01-01T16:24:29;6.80;;;3.05;;
46365;SDS011;32073;49.166;8.076;2023-01-01T16:28:33;5.47;;;2.40;;
46365;SDS011;32073;49.166;8.076;2023-01-01T16:32:34;6.43;;;2.17;;
46365;SDS011;32073;49.166;8.076;2023-01-01T16:36:35;4.13;;;2.20;;
46365;SDS011;32073;49.166;8.076;2023-01-01T16:40:35;3.95;;;2.25;;
46365;SDS011;32073;49.166;8.076;2023-01-01T16:44:39;4.10;;;2.00;;
46365;SDS011;32073;49.166;8.076;2023-01-01T16:48:40;5.68;;;2.10;;
46365;SDS011;32073;49.166;8.076;2023-01-01T16:52:42;6.78;;;3.22;;
46365;SDS011;32073;49.166;8.076;2023-01-01T16:56:42;5.05;;;2.08;;
46365;SDS011;32073;49.166;8.076;2023-01-01T17:00:43;5.20;;;2.00;;
46365;SDS011;32073;49.166;8.076;2023-01-01T17:04:44;7.07;;;2.42;;
46365;SDS011;32073;49.166;8.076;2023-01-01T17:08:45;4.65;;;2.53;;
46365;SDS011;32073;49.166;8.076;2023-01-01T17:12:45;8.27;;;3.00;;
46365;SDS011;32073;49.166;8.076;2023-01-01T17:16:46;8.45;;;3.08;;
46365;SDS011;32073;49.166;8.076;2023-01-01T17:20:47;7.53;;;3.25;;
46365;SDS011;32073;49.166;8.076;2023-01-01T17:24:48;3.90;;;2.30;;
46365;SDS011;32073;49.166;8.076;2023-01-01T17:28:49;5.65;;;2.60;;
46365;SDS011;32073;49.166;8.076;2023-01-01T17:32:51;4.80;;;2.10;;
46365;SDS011;32073;49.166;8.076;2023-01-01T17:36:52;4.60;;;2.13;;
46365;SDS011;32073;49.166;8.076;2023-01-01T17:40:59;6.75;;;3.00;;
46365;SDS011;32073;49.166;8.076;2023-01-01T17:45:01;5.30;;;2.72;;
46365;SDS011;32073;49.166;8.076;2023-01-01T17:49:02;5.53;;;2.05;;
46365;SDS011;32073;49.166;8.076;2023-01-01T17:53:04;5.32;;;2.67;;
46365;SDS011;32073;49.166;8.076;2023-01-01T17:57:05;5.20;;;2.45;;
46365;SDS011;32073;49.166;8.076;2023-01-01T18:05:21;6.20;;;2.38;;
46365;SDS011;32073;49.166;8.076;2023-01-01T18:09:22;5.88;;;2.42;;
46365;SDS011;32073;49.166;8.076;2023-01-01T18:13:24;6.57;;;2.75;;
46365;SDS011;32073;49.166;8.076;2023-01-01T18:17:26;6.80;;;2.70;;
46365;SDS011;32073;49.166;8.076;2023-01-01T18:21:26;7.32;;;3.65;;
46365;SDS011;32073;49.166;8.076;2023-01-01T18:25:27;7.13;;;3.38;;
46365;SDS011;32073;49.166;8.076;2023-01-01T18:29:28;7.35;;;4.28;;
46365;SDS011;32073;49.166;8.076;2023-01-01T18:33:29;6.45;;;3.47;;
46365;SDS011;32073;49.166;8.076;2023-01-01T18:37:29;5.38;;;3.10;;
46365;SDS011;32073;49.166;8.076;2023-01-01T18:45:47;5.22;;;2.80;;
46365;SDS011;32073;49.166;8.076;2023-01-01T18:49:52;5.57;;;2.65;;
46365;SDS011;32073;49.166;8.076;2023-01-01T18:54:09;5.75;;;3.22;;
46365;SDS011;32073;49.166;8.076;2023-01-01T18:58:22;6.43;;;3.60;;
46365;SDS011;32073;49.166;8.076;2023-01-01T19:02:35;6.03;;;2.97;;
46365;SDS011;32073;49.166;8.076;2023-01-01T19:06:39;7.03;;;2.85;;
46365;SDS011;32073;49.166;8.076;2023-01-01T19:14:46;23.27;;;10.63;;
46365;SDS011;32073;49.166;8.076;2023-01-01T19:18:48;21.45;;;10.10;;
46365;SDS011;32073;49.166;8.076;2023-01-01T19:22:49;16.85;;;8.07;;
46365;SDS011;32073;49.166;8.076;2023-01-01T19:26:52;29.00;;;15.00;;
46365;SDS011;32073;49.166;8.076;2023-01-01T19:30:58;93.78;;;40.97;;
46365;SDS011;32073;49.166;8.076;2023-01-01T19:34:59;52.63;;;21.73;;
46365;SDS011;32073;49.166;8.076;2023-01-01T19:39:00;81.05;;;33.97;;
46365;SDS011;32073;49.166;8.076;2023-01-01T19:43:01;31.92;;;16.30;;
46365;SDS011;32073;49.166;8.076;2023-01-01T19:47:02;26.70;;;13.60;;
46365;SDS011;32073;49.166;8.076;2023-01-01T19:51:03;14.73;;;8.65;;
46365;SDS011;32073;49.166;8.076;2023-01-01T19:55:05;12.52;;;5.60;;
46365;SDS011;32073;49.166;8.076;2023-01-01T19:59:06;15.98;;;4.15;;
46365;SDS011;32073;49.166;8.076;2023-01-01T20:03:07;7.85;;;3.80;;
46365;SDS011;32073;49.166;8.076;2023-01-01T20:07:08;8.52;;;3.88;;
46365;SDS011;32073;49.166;8.076;2023-01-01T20:11:09;7.95;;;2.42;;
46365;SDS011;32073;49.166;8.076;2023-01-01T20:15:11;12.73;;;5.57;;
46365;SDS011;32073;49.166;8.076;2023-01-01T20:19:13;11.68;;;4.75;;
46365;SDS011;32073;49.166;8.076;2023-01-01T20:23:14;10.13;;;3.75;;
46365;SDS011;32073;49.166;8.076;2023-01-01T20:27:15;6.80;;;3.38;;
46365;SDS011;32073;49.166;8.076;2023-01-01T20:31:16;13.75;;;7.93;;
46365;SDS011;32073;49.166;8.076;2023-01-01T20:35:17;8.10;;;4.38;;
46365;SDS011;32073;49.166;8.076;2023-01-01T20:39:38;10.35;;;4.93;;
46365;SDS011;32073;49.166;8.076;2023-01-01T20:43:39;9.85;;;4.93;;
46365;SDS011;32073;49.166;8.076;2023-01-01T20:47:39;12.88;;;6.03;;
46365;SDS011;32073;49.166;8.076;2023-01-01T20:51:40;9.57;;;4.65;;
46365;SDS011;32073;49.166;8.076;2023-01-01T20:55:42;5.70;;;2.58;;
46365;SDS011;32073;49.166;8.076;2023-01-01T20:59:43;5.75;;;2.78;;
46365;SDS011;32073;49.166;8.076;2023-01-01T21:03:43;7.28;;;2.97;;
46365;SDS011;32073;49.166;8.076;2023-01-01T21:07:44;7.78;;;2.30;;
46365;SDS011;32073;49.166;8.076;2023-01-01T21:11:45;7.25;;;2.58;;
46365;SDS011;32073;49.166;8.076;2023-01-01T21:15:46;5.97;;;3.20;;
46365;SDS011;32073;49.166;8.076;2023-01-01T21:19:47;9.40;;;4.25;;
46365;SDS011;32073;49.166;8.076;2023-01-01T21:23:50;11.65;;;5.20;;
46365;SDS011;32073;49.166;8.076;2023-01-01T21:27:53;6.65;;;3.70;;
46365;SDS011;32073;49.166;8.076;2023-01-01T21:31:59;7.90;;;3.67;;
46365;SDS011;32073;49.166;8.076;2023-01-01T21:44:21;5.20;;;2.38;;
46365;SDS011;32073;49.166;8.076;2023-01-01T21:52:31;4.60;;;2.53;;
46365;SDS011;32073;49.166;8.076;2023-01-01T21:56:34;5.10;;;1.98;;
46365;SDS011;32073;49.166;8.076;2023-01-01T22:00:40;5.13;;;2.42;;
46365;SDS011;32073;49.166;8.076;2023-01-01T22:08:47;5.82;;;2.60;;
46365;SDS011;32073;49.166;8.076;2023-01-01T22:12:49;5.53;;;2.65;;
46365;SDS011;32073;49.166;8.076;2023-01-01T22:16:56;5.77;;;2.93;;
46365;SDS011;32073;49.166;8.076;2023-01-01T22:20:57;4.35;;;2.35;;
46365;SDS011;32073;49.166;8.076;2023-01-01T22:25:04;6.72;;;2.10;;
46365;SDS011;32073;49.166;8.076;2023-01-01T22:29:26;7.45;;;4.10;;
46365;SDS011;32073;49.166;8.076;2023-01-01T22:33:31;6.38;;;2.80;;
46365;SDS011;32073;49.166;8.076;2023-01-01T22:37:41;5.38;;;2.35;;
46365;SDS011;32073;49.166;8.076;2023-01-01T22:41:42;3.55;;;1.85;;
46365;SDS011;32073;49.166;8.076;2023-01-01T22:45:43;5.18;;;2.20;;
46365;SDS011;32073;49.166;8.076;2023-01-01T22:49:47;6.13;;;2.20;;
46365;SDS011;32073;49.166;8.076;2023-01-01T22:53:52;6.15;;;2.15;;
46365;SDS011;32073;49.166;8.076;2023-01-01T22:57:53;6.47;;;2.10;;
46365;SDS011;32073;49.166;8.076;2023-01-01T23:01:54;4.57;;;1.65;;
46365;SDS011;32073;49.166;8.076;2023-01-01T23:05:55;5.70;;;2.20;;
46365;SDS011;32073;49.166;8.076;2023-01-01T23:09:56;4.95;;;1.85;;
46365;SDS011;32073;49.166;8.076;2023-01-01T23:13:58;5.32;;;2.22;;
46365;SDS011;32073;49.166;8.076;2023-01-01T23:18:17;4.90;;;1.90;;
46365;SDS011;32073;49.166;8.076;2023-01-01T23:22:18;4.30;;;1.42;;
46365;SDS011;32073;49.166;8.076;2023-01-01T23:26:19;8.75;;;1.58;;
46365;SDS011;32073;49.166;8.076;2023-01-01T23:30:20;3.22;;;1.40;;
46365;SDS011;32073;49.166;8.076;2023-01-01T23:34:21;5.82;;;1.35;;
46365;SDS011;32073;49.166;8.076;2023-01-01T23:38:22;1.92;;;1.02;;
46365;SDS011;32073;49.166;8.076;2023-01-01T23:42:24;3.67;;;1.40;;
46365;SDS011;32073;49.166;8.076;2023-01-01T23:46:25;5.20;;;1.63;;
46365;SDS011;32073;49.166;8.076;2023-01-01T23:50:25;9.32;;;5.38;;
46365;SDS011;32073;49.166;8.076;2023-01-01T23:54:26;6.63;;;3.80;;
46365;SDS011;32073;49.166;8.076;2023-01-01T23:58:27;10.65;;;5.72;;
